createdAt,value
2018-12-02T00:02:22.240Z,96037.30
2018-12-02T00:04:53.148Z,96039.89
2018-12-02T00:07:23.046Z,96040.47
2018-12-02T00:09:53.044Z,96037.59
2018-12-02T00:12:22.588Z,96036.39
2018-12-02T00:14:52.314Z,96041.06
2018-12-02T00:17:22.394Z,96035.72
2018-12-02T00:19:53.180Z,96032.91
2018-12-02T00:22:22.637Z,96031.22
2018-12-02T00:24:54.337Z,96028.03
2018-12-02T00:27:26.302Z,96023.34
2018-12-02T00:29:58.270Z,96026.49
2018-12-02T00:32:29.212Z,96024.51
2018-12-02T00:35:01.287Z,96023.78
2018-12-02T00:37:32.318Z,96020.80
2018-12-02T00:40:08.052Z,96020.02
2018-12-02T00:42:37.521Z,96021.70
2018-12-02T00:45:10.352Z,96021.75
2018-12-02T00:47:41.217Z,96015.80
2018-12-02T00:50:14.969Z,96003.34
2018-12-02T00:52:50.629Z,96011.91
2018-12-02T00:55:32.813Z,96018.08
2018-12-02T00:58:03.582Z,96016.34
2018-12-02T01:00:34.741Z,96017.50
2018-12-02T01:03:08.665Z,96015.34
2018-12-02T01:05:40.506Z,96017.02
2018-12-02T01:08:11.814Z,96014.83
2018-12-02T01:10:42.857Z,96014.80
2018-12-02T01:13:13.684Z,96016.02
2018-12-02T01:15:43.340Z,96015.53
2018-12-02T01:18:13.792Z,96021.30
2018-12-02T01:20:46.556Z,96010.77
2018-12-02T01:23:18.176Z,96007.41
2018-12-02T01:28:54.455Z,96015.31
2018-12-02T01:31:28.152Z,96013.85
2018-12-02T01:34:06.600Z,96015.03
2018-12-02T01:36:36.088Z,96007.02
2018-12-02T01:39:08.360Z,96003.62
2018-12-02T01:41:43.414Z,95999.80
2018-12-02T01:44:16.431Z,95995.91
2018-12-02T01:46:53.481Z,95989.16
2018-12-02T01:49:22.909Z,95984.84
2018-12-02T01:51:54.450Z,95978.02
2018-12-02T01:54:25.006Z,95971.69
2018-12-02T01:56:54.602Z,95973.42
2018-12-02T01:59:26.117Z,95970.83
2018-12-02T02:01:56.734Z,95976.55
2018-12-02T02:04:27.578Z,95972.30
2018-12-02T02:06:57.729Z,95968.44
2018-12-02T02:09:28.594Z,95961.27
2018-12-02T02:11:59.630Z,95966.24
2018-12-02T02:14:30.342Z,95961.16
2018-12-02T02:16:59.764Z,95961.98
2018-12-02T02:19:31.595Z,95958.59
2018-12-02T02:22:02.577Z,95955.16
2018-12-02T02:24:33.589Z,95948.39
2018-12-02T02:27:03.911Z,95952.05
2018-12-02T02:29:34.665Z,95951.56
2018-12-02T02:32:06.415Z,95946.05
2018-12-02T02:34:36.479Z,95940.50
2018-12-02T02:37:12.686Z,95943.84
2018-12-02T02:39:43.600Z,95940.96
2018-12-02T02:42:13.657Z,95934.67
2018-12-02T02:44:43.832Z,95934.98
2018-12-02T02:47:14.828Z,95935.88
2018-12-02T02:49:46.449Z,95927.88
2018-12-02T02:52:15.837Z,95927.45
2018-12-02T02:54:46.874Z,95922.70
2018-12-02T02:57:16.809Z,95916.02
2018-12-02T02:59:47.939Z,95917.27
2018-12-02T03:02:18.757Z,95907.66
2018-12-02T03:04:51.900Z,95913.60
2018-12-02T03:07:22.773Z,95908.69
2018-12-02T03:09:55.781Z,95908.38
2018-12-02T03:12:26.421Z,95915.09
2018-12-02T03:14:57.042Z,95909.36
2018-12-02T03:17:28.225Z,95908.47
2018-12-02T03:19:59.069Z,95902.16
2018-12-02T03:22:28.985Z,95907.43
2018-12-02T03:24:59.832Z,95900.72
2018-12-02T03:27:31.924Z,95899.77
2018-12-02T03:30:16.446Z,95890.97
2018-12-02T03:32:47.179Z,95888.02
2018-12-02T03:35:24.227Z,95886.70
2018-12-02T03:37:56.220Z,95879.10
2018-12-02T03:40:27.985Z,95882.84
2018-12-02T03:42:59.138Z,95885.39
2018-12-02T03:45:30.082Z,95889.50
2018-12-02T03:48:03.260Z,95889.07
2018-12-02T03:50:35.389Z,95897.75
2018-12-02T03:53:08.226Z,95896.01
2018-12-02T03:55:38.288Z,95892.17
2018-12-02T03:58:08.837Z,95888.40
2018-12-02T04:00:41.145Z,95887.56
2018-12-02T04:03:12.868Z,95883.30
2018-12-02T04:05:43.032Z,95876.95
2018-12-02T04:08:14.131Z,95869.84
2018-12-02T04:10:44.423Z,95871.01
2018-12-02T04:13:15.092Z,95859.87
2018-12-02T04:15:50.965Z,95859.50
2018-12-02T04:18:25.973Z,95861.67
2018-12-02T04:21:01.897Z,95856.34
2018-12-02T04:23:32.166Z,95847.34
2018-12-02T04:26:03.325Z,95857.91
2018-12-02T04:28:33.820Z,95854.13
2018-12-02T04:31:04.277Z,95857.41
2018-12-02T04:33:35.293Z,95859.56
2018-12-02T04:36:05.405Z,95849.44
2018-12-02T04:38:35.836Z,95846.16
2018-12-02T04:41:07.061Z,95844.47
2018-12-02T04:43:44.270Z,95842.95
2018-12-02T04:46:15.509Z,95838.05
2018-12-02T04:48:45.485Z,95838.42
2018-12-02T04:51:17.285Z,95839.50
2018-12-02T04:53:49.314Z,95840.81
2018-12-02T04:56:21.480Z,95840.36
2018-12-02T04:58:51.564Z,95833.77
2018-12-02T05:01:21.506Z,95828.67
2018-12-02T05:03:52.651Z,95828.88
2018-12-02T05:06:22.473Z,95827.22
2018-12-02T05:08:54.365Z,95827.56
2018-12-02T05:11:26.503Z,95828.33
2018-12-02T05:13:58.846Z,95829.61
2018-12-02T05:16:29.698Z,95824.56
2018-12-02T05:19:01.605Z,95823.86
2018-12-02T05:21:32.370Z,95823.23
2018-12-02T05:24:02.760Z,95812.95
2018-12-02T05:26:33.129Z,95814.84
2018-12-02T05:29:03.630Z,95815.91
2018-12-02T05:31:33.680Z,95813.78
2018-12-02T05:34:05.000Z,95817.66
2018-12-02T05:36:38.471Z,95815.20
2018-12-02T05:39:10.176Z,95816.95
2018-12-02T05:41:44.877Z,95811.49
2018-12-02T05:44:16.470Z,95810.23
2018-12-02T05:46:50.474Z,95796.83
2018-12-02T05:49:19.831Z,95806.89
2018-12-02T05:51:51.579Z,95797.78
2018-12-02T05:54:22.686Z,95792.69
2018-12-02T05:56:54.622Z,95789.81
2018-12-02T05:59:26.370Z,95801.49
2018-12-02T06:01:56.942Z,95793.65
2018-12-02T06:04:26.729Z,95780.18
2018-12-02T06:06:57.636Z,95793.25
2018-12-02T06:09:29.220Z,95786.35
2018-12-02T06:11:59.724Z,95783.00
2018-12-02T06:14:29.917Z,95778.48
2018-12-02T06:17:01.119Z,95773.77
2018-12-02T06:19:31.546Z,95773.06
2018-12-02T06:22:01.897Z,95768.73
2018-12-02T06:24:32.419Z,95772.44
2018-12-02T06:27:11.821Z,95773.00
2018-12-02T06:29:42.804Z,95775.15
2018-12-02T06:32:14.008Z,95771.80
2018-12-02T06:34:45.875Z,95767.27
2018-12-02T06:37:16.809Z,95772.70
2018-12-02T06:39:47.049Z,95770.24
2018-12-02T06:42:17.941Z,95766.47
2018-12-02T06:47:48.716Z,95773.00
2018-12-02T06:50:25.774Z,95770.63
2018-12-02T06:53:01.932Z,95774.59
2018-12-02T06:55:41.829Z,95769.13
2018-12-02T06:58:40.730Z,95766.64
2018-12-02T07:01:33.587Z,95763.83
2018-12-02T07:04:31.791Z,95765.22
2018-12-02T07:07:05.397Z,95767.47
2018-12-02T07:09:36.925Z,95764.33
2018-12-02T07:12:09.075Z,95767.11
2018-12-02T07:14:40.296Z,95763.97
2018-12-02T07:17:11.105Z,95760.33
2018-12-02T07:19:49.940Z,95759.69
2018-12-02T07:22:31.433Z,95750.83
2018-12-02T07:25:05.209Z,95747.15
2018-12-02T07:27:37.030Z,95750.55
2018-12-02T07:30:10.055Z,95752.02
2018-12-02T07:32:42.046Z,95751.39
2018-12-02T07:35:14.070Z,95753.84
2018-12-02T07:37:49.911Z,95748.58
2018-12-02T07:40:27.605Z,95749.31
2018-12-02T07:42:59.149Z,95748.25
2018-12-02T07:45:29.285Z,95745.86
2018-12-02T07:48:00.416Z,95747.62
2018-12-02T07:50:30.531Z,95742.29
2018-12-02T07:53:01.270Z,95747.05
2018-12-02T07:55:32.204Z,95742.52
2018-12-02T07:58:02.345Z,95733.77
2018-12-02T08:00:33.309Z,95732.34
2018-12-02T08:03:03.244Z,95731.52
2018-12-02T08:05:34.243Z,95721.62
2018-12-02T08:08:05.624Z,95736.00
2018-12-02T08:10:35.194Z,95739.64
2018-12-02T08:13:06.796Z,95732.84
2018-12-02T08:15:36.258Z,95737.55
2018-12-02T08:18:07.193Z,95735.43
2018-12-02T08:20:37.156Z,95732.91
2018-12-02T08:23:07.461Z,95732.95
2018-12-02T08:25:39.451Z,95735.17
2018-12-02T08:28:09.284Z,95736.86
2018-12-02T08:30:39.456Z,95728.66
2018-12-02T08:33:10.399Z,95736.15
2018-12-02T08:35:41.349Z,95729.66
2018-12-02T08:38:13.168Z,95722.57
2018-12-02T08:43:45.070Z,95725.33
2018-12-02T08:46:16.353Z,95725.16
2018-12-02T08:48:47.513Z,95704.17
2018-12-02T08:51:18.795Z,95733.79
2018-12-02T08:53:50.337Z,95731.80
2018-12-02T08:56:26.358Z,95734.99
2018-12-02T08:58:59.231Z,95735.58
2018-12-02T09:01:30.501Z,95732.45
2018-12-02T09:04:01.444Z,95726.52
2018-12-02T09:06:31.472Z,95722.73
2018-12-02T09:09:01.938Z,95722.12
2018-12-02T09:11:33.553Z,95721.33
2018-12-02T09:14:06.315Z,95717.69
2018-12-02T09:16:36.423Z,95718.70
2018-12-02T09:19:12.387Z,95713.08
2018-12-02T09:21:42.437Z,95713.23
2018-12-02T09:24:13.577Z,95708.98
2018-12-02T09:26:44.095Z,95703.17
2018-12-02T09:29:14.658Z,95702.69
2018-12-02T09:31:44.854Z,95704.84
2018-12-02T09:34:15.505Z,95704.77
2018-12-02T09:36:45.660Z,95697.38
2018-12-02T09:39:18.498Z,95694.56
2018-12-02T09:41:47.820Z,95682.81
2018-12-02T09:44:17.644Z,95678.81
2018-12-02T09:46:48.588Z,95667.93
2018-12-02T09:49:19.095Z,95659.10
2018-12-02T09:51:49.597Z,95657.45
2018-12-02T09:54:23.347Z,95657.17
2018-12-02T09:56:50.766Z,95661.39
2018-12-02T09:59:21.790Z,95649.00
2018-12-02T10:01:53.073Z,95641.13
2018-12-02T10:04:23.537Z,95639.87
2018-12-02T10:06:59.661Z,95634.58
2018-12-02T10:09:33.693Z,95629.77
2018-12-02T10:12:06.232Z,95628.74
2018-12-02T10:14:37.673Z,95617.67
2018-12-02T10:17:11.373Z,95613.14
2018-12-02T10:19:41.929Z,95610.34
2018-12-02T10:22:11.852Z,95614.78
2018-12-02T10:24:42.998Z,95604.54
2018-12-02T10:27:13.169Z,95604.94
2018-12-02T10:29:43.817Z,95604.30
2018-12-02T10:32:13.953Z,95598.66
2018-12-02T10:34:44.696Z,95599.72
2018-12-02T10:37:17.860Z,95599.20
2018-12-02T10:39:49.329Z,95594.07
2018-12-02T10:42:20.222Z,95594.44
2018-12-02T10:44:50.192Z,95590.22
2018-12-02T10:47:19.979Z,95581.30
2018-12-02T10:49:54.078Z,95576.26
2018-12-02T10:52:23.549Z,95575.16
2018-12-02T10:54:55.329Z,95574.94
2018-12-02T10:57:27.105Z,95577.88
2018-12-02T10:59:59.183Z,95574.63
2018-12-02T11:02:28.989Z,95574.01
2018-12-02T11:05:00.101Z,95566.69
2018-12-02T11:07:30.025Z,95568.38
2018-12-02T11:10:01.401Z,95554.48
2018-12-02T11:12:35.908Z,95554.02
2018-12-02T11:15:12.420Z,95541.92
2018-12-02T11:17:42.696Z,95538.73
2018-12-02T11:20:15.243Z,95531.16
2018-12-02T11:22:46.374Z,95527.54
2018-12-02T11:25:17.033Z,95519.98
2018-12-02T11:27:48.666Z,95526.19
2018-12-02T11:30:18.508Z,95519.01
2018-12-02T11:32:49.376Z,95510.53
2018-12-02T11:35:19.445Z,95506.47
2018-12-02T11:37:50.113Z,95497.06
2018-12-02T11:40:22.018Z,95502.03
2018-12-02T11:42:52.923Z,95493.86
2018-12-02T11:45:22.355Z,95494.13
2018-12-02T11:47:53.413Z,95490.52
2018-12-02T11:50:25.517Z,95489.83
2018-12-02T11:52:56.751Z,95481.49
2018-12-02T11:55:27.291Z,95466.14
2018-12-02T11:58:00.058Z,95463.91
2018-12-02T12:00:35.656Z,95461.25
2018-12-02T12:03:08.404Z,95459.03
2018-12-02T12:05:39.007Z,95454.12
2018-12-02T12:08:17.510Z,95441.09
2018-12-02T12:10:51.067Z,95440.78
2018-12-02T12:13:21.307Z,95435.13
2018-12-02T12:15:52.353Z,95433.00
2018-12-02T12:18:22.401Z,95427.57
2018-12-02T12:20:53.444Z,95424.38
2018-12-02T12:23:23.385Z,95429.53
2018-12-02T12:25:54.437Z,95432.79
2018-12-02T12:28:23.968Z,95430.39
2018-12-02T12:30:53.399Z,95430.73
2018-12-02T12:33:23.551Z,95429.77
2018-12-02T12:35:53.642Z,95433.91
2018-12-02T12:38:23.985Z,95434.95
2018-12-02T12:40:54.542Z,95450.28
2018-12-02T12:43:31.431Z,95481.85
2018-12-02T12:46:03.189Z,95503.09
2018-12-02T12:48:32.652Z,95511.64
2018-12-02T12:51:04.648Z,95500.14
2018-12-02T12:53:36.736Z,95484.58
2018-12-02T12:56:08.462Z,95491.46
2018-12-02T12:58:41.349Z,95492.60
2018-12-02T13:01:12.997Z,95492.56
2018-12-02T13:03:42.669Z,95489.47
2018-12-02T13:06:13.880Z,95480.45
2018-12-02T13:08:44.871Z,95480.59
2018-12-02T13:11:14.585Z,95485.55
2018-12-02T13:13:45.590Z,95482.41
2018-12-02T13:16:15.648Z,95478.67
2018-12-02T13:18:45.624Z,95483.50
2018-12-02T13:21:16.741Z,95463.21
2018-12-02T13:23:46.573Z,95454.25
2018-12-02T13:26:17.546Z,95461.99
2018-12-02T13:28:47.661Z,95453.89
2018-12-02T13:31:21.843Z,95455.47
2018-12-02T13:33:53.165Z,95442.23
2018-12-02T13:36:22.674Z,95439.14
2018-12-02T13:38:53.815Z,95431.30
2018-12-02T13:41:23.660Z,95428.96
2018-12-02T13:43:54.758Z,95422.30
2018-12-02T13:46:24.145Z,95425.52
2018-12-02T13:48:53.982Z,95425.00
2018-12-02T13:51:23.731Z,95433.53
2018-12-02T13:53:59.406Z,95438.05
2018-12-02T13:56:29.749Z,95429.26
2018-12-02T13:59:00.937Z,95438.48
2018-12-02T14:01:31.878Z,95437.14
2018-12-02T14:04:02.581Z,95450.66
2018-12-02T14:06:38.740Z,95437.03
2018-12-02T14:09:10.706Z,95447.56
2018-12-02T14:11:40.193Z,95449.19
2018-12-02T14:14:12.599Z,95462.27
2018-12-02T14:16:55.749Z,95440.16
2018-12-02T14:19:27.216Z,95461.23
2018-12-02T14:21:57.973Z,95467.45
2018-12-02T14:24:30.092Z,95436.33
2018-12-02T14:27:01.865Z,95440.85
2018-12-02T14:29:38.384Z,95435.37
2018-12-02T14:32:12.845Z,95432.36
2018-12-02T14:34:43.871Z,95432.09
2018-12-02T14:37:14.097Z,95425.91
2018-12-02T14:39:44.237Z,95432.11
2018-12-02T14:42:13.631Z,95449.84
2018-12-02T14:44:43.069Z,95467.48
2018-12-02T14:47:13.337Z,95470.05
2018-12-02T14:49:43.758Z,95468.73
2018-12-02T14:52:13.789Z,95464.16
2018-12-02T14:54:43.742Z,95490.05
2018-12-02T14:57:13.264Z,95495.69
2018-12-02T14:59:43.714Z,95512.42
2018-12-02T15:02:13.625Z,95512.91
2018-12-02T15:04:52.644Z,95487.53
2018-12-02T15:07:22.021Z,95492.42
2018-12-02T15:09:51.425Z,95488.80
2018-12-02T15:12:21.137Z,95476.20
2018-12-02T15:14:50.913Z,95489.33
2018-12-02T15:17:20.671Z,95485.97
2018-12-02T15:19:50.240Z,95483.45
2018-12-02T15:22:22.853Z,95473.17
2018-12-02T15:24:52.566Z,95475.31
2018-12-02T15:27:22.355Z,95485.83
2018-12-02T15:29:51.761Z,95489.41
2018-12-02T15:32:24.315Z,95493.62
2018-12-02T15:34:54.497Z,95484.58
2018-12-02T15:37:24.425Z,95496.45
2018-12-02T15:39:57.633Z,95482.95
2018-12-02T15:42:27.513Z,95490.75
2018-12-02T15:44:57.167Z,95463.63
2018-12-02T15:47:27.193Z,95469.45
2018-12-02T15:49:57.233Z,95458.11
2018-12-02T15:52:27.295Z,95467.99
2018-12-02T15:54:56.708Z,95475.55
2018-12-02T15:57:27.402Z,95464.88
2018-12-02T16:00:20.173Z,95463.31
2018-12-02T16:02:49.864Z,95470.95
2018-12-02T16:05:19.898Z,95470.50
2018-12-02T16:07:49.297Z,95467.98
2018-12-02T16:10:18.873Z,95469.91
2018-12-02T16:12:50.751Z,95468.25
2018-12-02T16:15:21.858Z,95470.66
2018-12-02T16:17:52.089Z,95470.92
2018-12-02T16:20:25.897Z,95481.01
2018-12-02T16:22:56.026Z,95491.18
2018-12-02T16:25:26.175Z,95487.25
2018-12-02T16:27:55.565Z,95487.64
2018-12-02T16:30:25.161Z,95493.55
2018-12-02T16:32:55.196Z,95485.05
2018-12-02T16:35:26.290Z,95489.69
2018-12-02T16:37:56.852Z,95475.99
2018-12-02T16:40:31.039Z,95480.67
2018-12-02T16:43:07.132Z,95466.94
2018-12-02T16:45:36.794Z,95471.70
2018-12-02T16:48:07.998Z,95472.52
2018-12-02T16:50:44.542Z,95463.75
2018-12-02T16:53:17.260Z,95466.07
2018-12-02T16:55:52.385Z,95458.08
2018-12-02T16:58:50.361Z,95456.34
2018-12-02T17:01:22.844Z,95455.84
2018-12-02T17:03:56.526Z,95456.19
2018-12-02T17:06:26.010Z,95457.25
2018-12-02T17:08:56.896Z,95457.02
2018-12-02T17:11:26.990Z,95455.55
2018-12-02T17:13:58.373Z,95454.66
2018-12-02T17:16:29.125Z,95455.40
2018-12-02T17:18:58.545Z,95459.10
2018-12-02T17:21:28.204Z,95450.56
2018-12-02T17:23:58.119Z,95450.56
2018-12-02T17:26:27.545Z,95440.05
2018-12-02T17:29:05.962Z,95442.41
2018-12-02T17:31:38.732Z,95435.67
2018-12-02T17:34:08.685Z,95439.09
2018-12-02T17:36:38.116Z,95378.73
2018-12-02T17:39:11.428Z,95434.41
2018-12-02T17:41:41.814Z,95426.61
2018-12-02T17:44:11.230Z,95422.47
2018-12-02T17:46:40.800Z,95433.81
2018-12-02T17:49:10.864Z,95426.17
2018-12-02T17:51:41.028Z,95422.23
2018-12-02T17:54:10.956Z,95419.58
2018-12-02T17:56:41.092Z,95421.44
2018-12-02T17:59:10.949Z,95424.55
2018-12-02T18:01:40.468Z,95425.41
2018-12-02T18:04:10.779Z,95419.50
2018-12-02T18:06:40.528Z,95426.58
2018-12-02T18:09:12.514Z,95422.60
2018-12-02T18:11:43.490Z,95422.09
2018-12-02T18:14:13.067Z,95427.92
2018-12-02T18:16:42.677Z,95423.70
2018-12-02T18:19:12.240Z,95432.75
2018-12-02T18:21:43.290Z,95405.55
2018-12-02T18:24:12.922Z,95420.86
2018-12-02T18:26:48.993Z,95424.64
2018-12-02T18:29:19.780Z,95427.03
2018-12-02T18:31:50.119Z,95424.03
2018-12-02T18:34:20.209Z,95425.09
2018-12-02T18:36:49.942Z,95424.27
2018-12-02T18:39:21.644Z,95421.30
2018-12-02T18:41:53.858Z,95425.00
2018-12-02T18:44:23.801Z,95415.58
2018-12-02T18:46:54.046Z,95415.03
2018-12-02T18:49:24.014Z,95415.98
2018-12-02T18:51:53.522Z,95416.16
2018-12-02T18:54:23.721Z,95403.55
2018-12-02T18:56:53.523Z,95408.06
2018-12-02T18:59:23.330Z,95410.13
2018-12-02T19:01:54.218Z,95418.08
2018-12-02T19:04:25.653Z,95416.73
2018-12-02T19:06:58.695Z,95419.39
2018-12-02T19:09:26.532Z,95417.08
2018-12-02T19:14:56.614Z,95418.34
2018-12-02T19:17:27.169Z,95428.08
2018-12-02T19:19:57.659Z,95428.98
2018-12-02T19:22:27.813Z,95424.81
2018-12-02T19:24:57.421Z,95425.47
2018-12-02T19:27:27.894Z,95424.27
2018-12-02T19:29:59.542Z,95418.89
2018-12-02T19:32:29.836Z,95419.87
2018-12-02T19:35:00.301Z,95418.97
2018-12-02T19:37:39.460Z,95417.41
2018-12-02T19:40:12.525Z,95409.97
2018-12-02T19:42:43.361Z,95407.28
2018-12-02T19:45:17.795Z,95405.64
2018-12-02T19:47:48.323Z,95410.81
2018-12-02T19:50:19.489Z,95409.51
2018-12-02T19:52:50.305Z,95413.20
2018-12-02T19:55:20.853Z,95415.38
2018-12-02T19:57:51.006Z,95409.33
2018-12-02T20:00:25.581Z,95406.94
2018-12-02T20:02:55.915Z,95401.06
2018-12-02T20:05:26.054Z,95391.01
2018-12-02T20:08:00.230Z,95393.23
2018-12-02T20:10:31.663Z,95393.15
2018-12-02T20:13:04.183Z,95400.41
2018-12-02T20:15:34.035Z,95398.58
2018-12-02T20:18:05.178Z,95400.80
2018-12-02T20:20:57.542Z,95395.41
2018-12-02T20:23:32.090Z,95401.98
2018-12-02T20:26:04.306Z,95410.81
2018-12-02T20:28:45.718Z,95401.02
2018-12-02T20:31:16.981Z,95402.89
2018-12-02T20:33:46.798Z,95405.23
2018-12-02T20:36:17.534Z,95400.28
2018-12-02T20:38:47.697Z,95400.93
2018-12-02T20:41:17.227Z,95404.55
2018-12-02T20:43:48.619Z,95399.37
2018-12-02T20:46:18.229Z,95400.19
2018-12-02T20:48:48.774Z,95395.19
2018-12-02T20:51:18.347Z,95391.58
2018-12-02T20:53:51.217Z,95388.58
2018-12-02T20:56:20.777Z,95382.83
2018-12-02T20:58:50.931Z,95379.83
2018-12-02T21:01:23.728Z,95378.30
2018-12-02T21:03:54.410Z,95375.88
2018-12-02T21:06:24.426Z,95379.96
2018-12-02T21:08:54.409Z,95369.21
2018-12-02T21:11:23.899Z,95371.00
2018-12-02T21:13:53.341Z,95361.38
2018-12-02T21:16:24.049Z,95359.73
2018-12-02T21:18:53.439Z,95358.91
2018-12-02T21:21:24.160Z,95354.41
2018-12-02T21:23:53.550Z,95351.84
2018-12-02T21:26:22.953Z,95357.48
2018-12-02T21:28:52.945Z,95361.63
2018-12-02T21:31:22.593Z,95353.76
2018-12-02T21:33:52.003Z,95353.02
2018-12-02T21:36:22.348Z,95355.38
2018-12-02T21:38:52.170Z,95359.42
2018-12-02T21:41:21.534Z,95357.07
2018-12-02T21:43:52.033Z,95356.63
2018-12-02T21:46:21.580Z,95364.41
2018-12-02T21:48:52.444Z,95368.64
2018-12-02T21:51:26.505Z,95367.08
2018-12-02T21:53:55.970Z,95350.63
2018-12-02T21:56:26.058Z,95363.84
2018-12-02T21:58:55.701Z,95361.47
2018-12-02T22:01:25.125Z,95361.94
2018-12-02T22:03:54.547Z,95368.69
2018-12-02T22:06:24.575Z,95366.98
2018-12-02T22:08:54.011Z,95363.91
2018-12-02T22:11:24.213Z,95371.48
2018-12-02T22:13:54.777Z,95371.12
2018-12-02T22:16:24.537Z,95376.73
2018-12-02T22:18:54.413Z,95376.83
2018-12-02T22:21:23.930Z,95373.95
2018-12-02T22:23:53.397Z,95370.25
2018-12-02T22:26:24.241Z,95364.29
2018-12-02T22:28:55.266Z,95356.63
2018-12-02T22:31:24.764Z,95359.51
2018-12-02T22:33:54.959Z,95361.50
2018-12-02T22:36:24.541Z,95369.94
2018-12-02T22:38:54.677Z,95367.15
2018-12-02T22:41:24.584Z,95364.89
2018-12-02T22:43:54.645Z,95373.89
2018-12-02T22:46:25.078Z,95368.38
2018-12-02T22:48:55.205Z,95367.53
2018-12-02T22:51:24.685Z,95366.27
2018-12-02T22:53:56.099Z,95367.59
2018-12-02T22:56:25.605Z,95367.67
2018-12-02T22:58:55.277Z,95356.31
2018-12-02T23:01:30.220Z,95357.95
2018-12-02T23:04:01.935Z,95360.57
2018-12-02T23:06:36.253Z,95359.40
2018-12-02T23:09:08.594Z,95359.87
2018-12-02T23:11:41.841Z,95370.97
2018-12-02T23:14:11.280Z,95363.45
2018-12-02T23:16:45.865Z,95363.74
2018-12-02T23:19:15.424Z,95355.78
2018-12-02T23:21:44.793Z,95349.56
2018-12-02T23:24:14.454Z,95345.78
2018-12-02T23:26:43.867Z,95349.86
2018-12-02T23:29:13.422Z,95347.16
2018-12-02T23:31:44.031Z,95355.31
2018-12-02T23:34:13.474Z,95352.67
2018-12-02T23:36:43.577Z,95359.72
2018-12-02T23:39:16.050Z,95352.61
2018-12-02T23:41:45.679Z,95354.84
2018-12-02T23:44:18.365Z,95347.89
2018-12-02T23:46:47.801Z,95344.84
2018-12-02T23:49:17.756Z,95356.05
2018-12-02T23:51:47.811Z,95347.20
2018-12-02T23:54:18.570Z,95347.03
2018-12-02T23:56:49.285Z,95351.84
2018-12-02T23:59:21.293Z,95340.27
